Latest Weather Observations for Trangie

IDN60801

Issued at 3:35 am EDT Tuesday 25 November 2014 (issued every 30 minutes, with the page automatically refreshed every 10 minutes)

About weather observations | Map of weather stations | Latest weather observations for NSW | Other Formats
Station Details ID: 051049 Name: TRANGIE RESEARCH STATION AWS Lat: -31.99 Lon: 147.95 Height: 215.0 m
Data from the previous 72 hours. | See also: Recent months at Trangie
Date/Time
EDT
Temp
°C
App
Temp
°C
Dew
Point
Rel
Hum
%
Delta-T
°C
Wind Press
QNH
hPa
Press
MSL
hPa
Rain
since 9 am
mm
Dir
 
Spd
km/h
Gust
km/h
Spd
kts
Gust
kts
25/03:30am 19.1 21.0 18.6 97 0.3 ESE 6 9 3 5 1013.0 1012.2 5.2
25/03:00am 19.4 20.6 19.1 98 0.2 ENE 11 15 6 8 1012.8 1012.0 5.0
25/02:30am 19.5 21.6 19.3 99 0.1 E 7 13 4 7 1012.9 1012.1 4.8
25/02:00am 19.3 19.7 19.0 98 0.2 S 15 22 8 12 1013.8 1013.0 4.4
25/01:31am 20.5 18.6 19.3 93 0.8 SW 28 48 15 26 1014.4 1013.6 3.4
25/01:30am 20.9 19.6 19.9 94 0.6 SW 26 46 14 25 1014.4 1013.6 3.2
25/01:00am 20.8 23.5 19.5 92 0.8 NNE 4 9 2 5 1013.3 1012.4 2.8
25/12:30am 20.9 23.9 19.2 90 1.1 S 2 7 1 4 1013.8 1013.0 1.8
25/12:00am 21.0 23.0 19.1 89 1.2 SE 7 11 4 6 1013.7 1012.9 1.4
 
Date/Time
EDT
Temp
°C
App
Temp
°C
Dew
Point
Rel
Hum
%
Delta-T
°C
Wind Press
QNH
hPa
Press
MSL
hPa
Rain
since 9 am
mm
Dir
 
Spd
km/h
Gust
km/h
Spd
kts
Gust
kts
24/11:30pm 23.4 23.2 19.8 80 2.3 WSW 20 30 11 16 1013.8 1013.0 0.4
24/11:00pm 24.2 24.7 18.4 70 3.7 N 13 19 7 10 1012.5 1011.7 0.2
24/10:30pm 27.4 27.1 16.4 51 6.9 N 13 20 7 11 1012.2 1011.4 0.0
24/10:00pm 29.6 28.5 14.2 39 9.4 NW 13 19 7 10 1012.1 1011.3 0.0
24/09:30pm 29.0 28.1 14.8 42 8.7 W 13 17 7 9 1011.5 1010.7 0.0
24/09:00pm 28.7 28.7 14.1 40 8.8 WNW 7 11 4 6 1010.9 1010.1 0.0
24/08:30pm 28.9 28.6 14.3 40 8.9 W 9 13 5 7 1010.6 1009.8 0.0
24/08:00pm 29.8 28.4 13.5 36 9.8 WNW 13 19 7 10 1010.3 1009.5 0.0
24/07:30pm 30.0 26.5 13.3 36 10.0 W 24 28 13 15 1009.9 1009.1 0.0
24/07:00pm 30.4 26.5 13.2 35 10.4 W 26 32 14 17 1009.0 1008.1 0.0
24/06:30pm 31.3 27.3 13.1 33 11.0 W 26 35 14 19 1008.3 1007.5 0.0
24/06:00pm 32.1 27.5 12.3 29 11.8 W 28 37 15 20 1008.0 1007.2 0.0
24/05:30pm 32.7 27.3 12.3 28 12.2 WSW 32 44 17 24 1007.9 1007.1 0.0
24/05:00pm 33.2 25.9 12.8 29 12.3 WSW 43 63 23 34 1008.2 1007.4 0.0
24/04:56pm 33.3 25.9 12.9 29 12.3 WSW 44 63 24 34 1008.3 1007.5 0.0
24/04:53pm 33.4 24.7 12.4 28 12.6 W 50 63 27 34 1008.2 1007.4 0.0
24/04:30pm 34.4 28.0 12.1 26 13.4 WNW 37 61 20 33 1008.0 1007.2 0.0
24/04:28pm 34.3 28.8 12.0 25 13.4 WNW 32 57 17 31 1008.1 1007.3 0.0
24/04:00pm 32.1 24.9 13.8 33 11.2 W 44 59 24 32 1009.0 1008.1 0.0
24/03:30pm 35.7 28.0 12.0 24 14.3 W 44 67 24 36 1008.7 1007.8 0.0
24/03:29pm 35.9 28.2 11.5 23 14.6 W 43 65 23 35 1008.8 1007.9 0.0
24/03:19pm 36.4 31.7 11.9 23 14.8 WNW 28 46 15 25 1008.9 1008.0 0.0
24/03:00pm 36.4 30.2 11.3 22 15.0 W 35 48 19 26 1008.9 1008.0 0.0
24/02:30pm 36.4 30.7 11.3 22 15.0 W 32 41 17 22 1009.2 1008.3 0.0
24/02:00pm 36.0 30.6 10.9 22 14.9 WNW 30 41 16 22 1009.6 1008.8 0.0
24/01:33pm 36.0 30.2 10.9 22 14.9 WNW 32 50 17 27 1009.5 1008.7 0.0
24/01:30pm 36.4 30.7 11.3 22 15.0 WNW 32 46 17 25 1009.5 1008.7 0.0
24/01:17pm 37.4 32.1 11.4 21 15.6 NW 30 50 16 27 1009.5 1008.7 0.0
24/01:00pm 36.1 31.3 13.0 25 14.2 NW 30 43 16 23 1009.8 1009.0 0.0
24/12:30pm 35.2 31.7 13.4 27 13.4 NNW 24 33 13 18 1010.2 1009.4 0.0
24/12:00pm 34.6 30.0 13.4 28 13.0 NNW 30 43 16 23 1010.5 1009.7 0.0
24/11:30am 34.1 29.1 13.5 28 12.6 N 32 43 17 23 1010.7 1009.9 0.0
24/11:10am 33.9 29.7 13.4 29 12.5 N 28 46 15 25 1010.7 1009.9 0.0
24/11:00am 34.3 30.2 13.7 29 12.7 N 28 43 15 23 1010.8 1010.0 0.0
24/10:50am 33.8 29.3 13.8 30 12.3 N 30 48 16 26 1010.8 1010.0 0.0
24/10:30am 33.6 28.7 13.6 29 12.2 N 32 46 17 25 1010.9 1010.1 0.0
24/10:03am 33.5 28.5 13.5 29 12.2 N 32 50 17 27 1010.9 1010.1 0.0
24/10:00am 33.4 28.8 13.5 30 12.2 N 30 43 16 23 1011.0 1010.2 0.0
24/09:30am 32.8 28.6 13.4 30 11.8 N 28 39 15 21 1011.4 1010.6 0.0
24/09:00am 32.0 28.8 13.2 31 11.4 N 22 37 12 20 1011.5 1010.7 0.0
24/08:30am 31.3 30.0 13.6 34 10.7 N 13 19 7 10 1011.6 1010.8 0.0
24/08:00am 29.4 28.8 13.6 38 9.5 ENE 9 17 5 9 1011.6 1010.8 0.0
24/07:30am 27.7 27.6 14.0 43 8.2 E 7 9 4 5 1011.6 1010.8 0.0
24/07:00am 26.8 26.8 14.2 46 7.6 SE 7 11 4 6 1011.7 1010.9 0.0
24/06:30am 25.8 25.8 13.6 47 7.2 SE 6 9 3 5 1011.7 1010.9 0.0
24/06:00am 26.6 26.6 13.7 45 7.7 E 6 9 3 5 1011.6 1010.8 0.0
24/05:30am 27.0 26.5 13.7 44 7.9 ENE 9 13 5 7 1011.4 1010.6 0.0
24/05:00am 27.6 26.9 13.2 41 8.6 E 9 13 5 7 1011.2 1010.4 0.0
24/04:30am 28.5 27.4 13.2 39 9.1 NE 11 15 6 8 1011.1 1010.3 0.0
24/04:00am 29.0 27.9 13.2 37 9.5 NNE 11 17 6 9 1011.2 1010.4 0.0
24/03:30am 29.3 28.3 12.3 35 10.0 NNE 9 15 5 8 1011.3 1010.5 0.0
24/03:00am 29.3 27.9 10.9 32 10.6 N 9 13 5 7 1011.4 1010.6 0.0
24/02:30am 29.7 28.1 10.3 30 11.1 NNE 9 13 5 7 1011.8 1011.0 0.0
24/02:00am 30.9 29.1 10.8 29 11.7 NE 11 22 6 12 1011.7 1010.9 0.0
24/01:30am 30.5 28.8 9.9 28 11.8 S 9 13 5 7 1012.3 1011.5 0.0
24/01:00am 29.9 28.2 9.9 29 11.4 SE 9 13 5 7 1012.7 1011.9 0.0
24/12:30am 29.6 28.0 10.2 30 11.1 S 9 11 5 6 1012.0 1011.2 0.0
24/12:00am 29.8 28.7 9.9 29 11.3 S 6 9 3 5 1012.2 1011.4 0.0
 
Date/Time
EDT
Temp
°C
App
Temp
°C
Dew
Point
Rel
Hum
%
Delta-T
°C
Wind Press
QNH
hPa
Press
MSL
hPa
Rain
since 9 am
mm
Dir
 
Spd
km/h
Gust
km/h
Spd
kts
Gust
kts
23/11:30pm 31.4 30.2 10.2 27 12.2 ENE 7 9 4 5 1012.6 1011.8 0.0
23/11:00pm 31.3 30.0 10.1 27 12.2 SE 7 13 4 7 1011.9 1011.1 0.0
23/10:30pm 30.6 29.1 10.5 29 11.6 SSE 9 11 5 6 1011.5 1010.7 0.0
23/10:00pm 31.5 29.7 10.8 28 12.1 SSW 11 15 6 8 1011.2 1010.4 0.0
23/09:30pm 31.3 29.0 10.6 28 12.0 SSW 13 19 7 10 1011.0 1010.2 0.0
23/09:00pm 33.2 31.5 11.1 26 13.0 S 11 17 6 9 1010.6 1009.8 0.0
23/08:30pm 33.8 32.3 10.4 24 13.7 S 9 13 5 7 1010.4 1009.6 0.0
23/08:00pm 35.4 32.7 9.0 20 15.2 S 13 19 7 10 1009.8 1009.0 0.0
23/07:30pm 36.0 31.9 8.7 19 15.7 S 20 39 11 21 1008.7 1007.8 0.0
23/07:00pm 37.7 33.1 6.6 15 17.5 S 20 33 11 18 1008.1 1007.3 0.0
23/06:30pm 38.9 32.2 5.5 13 18.5 SSW 30 37 16 20 1007.8 1007.0 0.0
23/06:00pm 42.1 37.3 2.7 9 21.4 W 17 24 9 13 1007.2 1006.4 0.0
23/05:30pm 42.0 35.1 2.6 9 21.3 W 28 39 15 21 1007.3 1006.5 0.0
23/05:00pm 41.6 34.3 2.3 9 21.1 W 30 41 16 22 1007.5 1006.7 0.0
23/04:30pm 43.5 37.7 2.1 8 22.4 W 22 30 12 16 1007.6 1006.8 0.0
23/04:00pm 44.3 37.4 2.7 8 22.8 WNW 28 41 15 22 1007.9 1007.1 0.0
23/03:30pm 43.2 36.9 3.5 9 21.8 NNW 26 39 14 21 1008.5 1007.6 0.0
23/03:00pm 44.0 36.3 2.4 8 22.7 NW 32 44 17 24 1008.9 1008.0 0.0
23/02:30pm 44.0 37.5 2.4 8 22.6 WNW 26 35 14 19 1009.5 1008.7 0.0
23/02:00pm 43.2 36.5 3.5 9 21.9 WNW 28 35 15 19 1009.8 1009.0 0.0
23/01:30pm 43.0 36.7 1.7 8 22.1 WNW 24 39 13 21 1010.2 1009.4 0.0
23/01:00pm 42.4 37.1 2.9 9 21.5 N 20 26 11 14 1010.6 1009.8 0.0
23/12:30pm 41.8 35.7 2.5 9 21.2 NNW 24 39 13 21 1010.9 1010.1 0.0
23/12:00pm 41.6 35.4 2.3 9 21.1 NNW 24 39 13 21 1011.4 1010.6 0.0
23/11:30am 41.6 34.5 3.8 10 20.7 NNW 30 39 16 21 1011.6 1010.8 0.0
23/11:00am 40.0 33.9 2.6 10 20.0 N 24 41 13 22 1011.8 1011.0 0.0
23/10:30am 40.1 34.2 4.0 11 19.7 N 24 37 13 20 1011.7 1010.9 0.0
23/10:00am 37.9 32.8 5.8 14 17.8 N 22 30 12 16 1011.8 1011.0 0.0
23/09:30am 36.2 32.0 5.5 15 16.8 N 17 26 9 14 1011.7 1010.9 0.0
23/09:00am 34.1 29.5 6.4 18 15.2 NNE 20 30 11 16 1011.5 1010.7 0.0
23/08:30am 32.7 28.2 6.1 19 14.4 NNE 19 28 10 15 1011.4 1010.6 0.0
23/08:00am 30.9 27.4 5.3 20 13.6 NE 13 19 7 10 1011.3 1010.5 0.0
23/07:30am 28.1 25.0 5.6 24 11.8 ENE 11 17 6 9 1011.1 1010.3 0.0
23/07:00am 25.4 22.8 6.1 29 10.1 E 9 13 5 7 1010.8 1010.0 0.0
23/06:30am 22.4 20.3 5.8 34 8.4 ESE 6 9 3 5 1010.5 1009.7 0.0
23/06:00am 22.1 19.9 5.1 33 8.5 SSE 6 9 3 5 1010.3 1009.5 0.0
23/05:30am 22.9 20.6 4.9 31 9.0 SSE 6 7 3 4 1010.0 1009.2 0.0
23/05:00am 23.8 21.3 4.7 29 9.6 S 7 11 4 6 1010.1 1009.3 0.0
23/04:30am 24.1 21.6 5.0 29 9.7 SE 7 11 4 6 1009.6 1008.8 0.0
23/04:00am 25.7 23.4 4.8 26 10.7 ENE 6 9 3 5 1009.4 1008.6 0.0
23/03:30am 25.8 23.3 4.9 26 10.7 ENE 7 9 4 5 1009.3 1008.4 0.0
23/03:00am 26.8 24.0 5.1 25 11.2 NE 9 13 5 7 1009.4 1008.6 0.0
23/02:30am 26.2 23.4 5.2 26 10.8 ENE 9 11 5 6 1009.7 1008.9 0.0
23/02:00am 24.9 22.5 5.2 28 10.1 ENE 7 9 4 5 1010.2 1009.4 0.0
23/01:30am 24.6 22.4 5.4 29 9.8 E 6 9 3 5 1010.4 1009.6 0.0
23/01:00am 24.7 22.3 4.5 27 10.2 E 6 7 3 4 1010.4 1009.6 0.0
23/12:30am 25.3 24.1 4.4 26 10.6 CALM 0 4 0 2 1010.7 1009.9 0.0
23/12:00am 25.6 23.5 4.1 25 10.8 ESE 4 7 2 4 1010.9 1010.1 0.0
 
Date/Time
EDT
Temp
°C
App
Temp
°C
Dew
Point
Rel
Hum
%
Delta-T
°C
Wind Press
QNH
hPa
Press
MSL
hPa
Rain
since 9 am
mm
Dir
 
Spd
km/h
Gust
km/h
Spd
kts
Gust
kts
22/11:30pm 26.8 24.3 4.6 24 11.4 E 7 9 4 5 1011.0 1010.2 0.0
22/11:00pm 26.9 24.7 5.2 25 11.2 E 6 7 3 4 1011.0 1010.2 0.0
22/10:30pm 27.4 26.3 5.1 24 11.6 CALM 0 0 0 0 1011.2 1010.4 0.0
22/10:00pm 28.0 25.6 4.3 22 12.2 ESE 6 7 3 4 1011.1 1010.3 0.0
22/09:30pm 29.5 28.4 4.9 21 12.9 CALM 0 0 0 0 1011.0 1010.2 0.0
22/09:00pm 30.3 28.0 4.9 20 13.4 SSE 6 6 3 3 1010.8 1010.0 0.0
22/08:30pm 31.9 29.4 3.8 17 14.6 S 6 7 3 4 1010.5 1009.7 0.0
22/08:00pm 32.5 30.5 2.5 15 15.4 WSW 2 9 1 5 1010.3 1009.5 0.0
22/07:30pm 35.5 32.3 2.9 13 17.1 SSW 9 11 5 6 1009.9 1009.1 0.0
22/07:00pm 36.5 32.6 1.3 11 18.1 W 11 20 6 11 1009.5 1008.7 0.0
22/06:30pm 38.5 35.0 1.5 10 19.3 W 9 15 5 8 1009.0 1008.1 0.0
22/06:00pm 38.6 33.6 1.6 10 19.4 WNW 17 24 9 13 1008.7 1007.8 0.0
22/05:30pm 39.5 34.0 0.8 9 20.1 W 19 30 10 16 1008.8 1007.9 0.0
22/05:00pm 38.9 32.4 0.3 9 19.8 SW 24 35 13 19 1009.0 1008.1 0.0
22/04:30pm 39.6 33.6 0.9 9 20.1 W 22 33 12 18 1009.4 1008.6 0.0
22/04:00pm 39.5 33.3 2.2 10 19.8 WNW 24 35 13 19 1009.4 1008.6 0.0
22/03:30pm 39.8 34.4 2.5 10 19.9 W 20 28 11 15 1009.7 1008.9 0.0
22/03:00pm 39.2 34.0 3.4 11 19.3 NW 20 32 11 17 1010.0 1009.2 0.0
22/02:30pm 38.9 32.9 3.1 11 19.2 WNW 24 32 13 17 1010.4 1009.6 0.0
22/02:00pm 39.0 34.3 3.2 11 19.2 NNW 17 30 9 16 1010.6 1009.8 0.0
22/01:30pm 38.7 33.6 4.2 12 18.8 N 20 32 11 17 1011.1 1010.3 0.0
22/01:00pm 37.3 33.6 4.3 13 17.9 WNW 13 22 7 12 1011.5 1010.7 0.0
22/12:30pm 36.6 32.8 5.8 15 17.0 W 15 22 8 12 1011.9 1011.1 0.0
22/12:00pm 36.6 33.2 5.8 15 17.0 WNW 13 24 7 13 1012.2 1011.4 0.0
22/11:30am 35.9 34.1 7.0 17 16.2 N 6 11 3 6 1012.5 1011.7 0.0
22/11:00am 34.9 31.9 7.9 19 15.2 N 13 24 7 13 1012.7 1011.9 0.0
22/10:30am 34.8 32.8 8.5 20 15.0 NW 9 15 5 8 1012.7 1011.9 0.0
22/10:00am 33.8 31.7 9.8 23 13.9 NE 11 19 6 10 1012.9 1012.1 0.0
22/09:30am 32.1 30.0 9.6 25 12.9 E 11 17 6 9 1013.0 1012.2 0.0
22/09:00am 30.0 27.8 9.5 28 11.6 E 11 15 6 8 1013.0 1012.2 0.0
22/08:30am 28.5 26.4 9.7 31 10.6 E 11 19 6 10 1013.0 1012.2 0.0
22/08:00am 27.5 25.8 9.8 33 9.9 E 9 15 5 8 1012.9 1012.1 0.0
22/07:30am 24.9 23.0 9.2 37 8.6 ESE 9 17 5 9 1012.7 1011.9 0.0
22/07:00am 22.0 20.8 9.5 45 6.8 ESE 6 7 3 4 1012.2 1011.4 0.0
22/06:30am 18.0 17.6 8.3 53 5.0 CALM 0 0 0 0 1011.9 1011.1 0.0
22/06:00am 18.0 17.7 8.8 55 4.8 CALM 0 0 0 0 1011.7 1010.9 0.0
22/05:30am 18.0 17.6 8.3 53 5.0 CALM 0 0 0 0 1011.5 1010.7 0.0
22/05:00am 18.4 18.0 8.4 52 5.2 CALM 0 0 0 0 1011.5 1010.7 0.0
22/04:30am 19.3 19.0 8.6 50 5.6 CALM 0 0 0 0 1011.2 1010.4 0.0
22/04:00am 19.5 19.2 8.5 49 5.8 CALM 0 0 0 0 1011.0 1010.2 0.0

Other Formats:

Comma delimited format used in spreadsheet applications
http://www.bom.gov.au/fwo/IDN60801/IDN60801.95710.axf

JavaScript Object Notation format (JSON) in row-major order
http://www.bom.gov.au/fwo/IDN60801/IDN60801.95710.json